Time;durP1;ratioP1;P1;durP2;ratioP2;P2;SDS_P1;SDS_P2;PMS_P1;PMS_P2;Temp;Humidity;BMP_temperature;BMP_pressure;BME280_temperature;BME280_humidity;BME280_pressure;Samples;Min_cycle;Max_cycle;Signal;HPM_P1;HPM_P2
2022/07/04 00:01:35;;;;;;;;;;;;;;;;;;5081387;28;19925;-87
2022/07/04 00:04:00;;;;;;;;;;;;;;;;;;5074479;28;19931;-87
2022/07/04 00:06:26;;;;;;;;;;;;;;;;;;5121705;27;19938;-86
2022/07/04 00:08:52;;;;;;;;;;;;;;;;;;5065068;28;20334;-87
2022/07/04 00:11:18;;;;;;;;;;;;;;;;;;5095889;28;19931;-87
2022/07/04 00:13:44;;;;;;;;;;;;;;;;;;5085917;28;19925;-88
2022/07/04 00:16:10;;;;;;;;;;;;;;;;;;5073723;28;19947;-88
2022/07/04 00:18:36;;;;;;;;;;;;;;;;;;5079406;28;19977;-87
2022/07/04 00:21:02;;;;;;;;;;;;;;;;;;5061885;28;19936;-87
2022/07/04 00:23:28;;;;;;;;;;;;;;;;;;5074962;28;20394;-86
2022/07/04 00:25:54;;;;;;;;;;;;;;;;;;5107516;28;19931;-87
2022/07/04 00:28:20;;;;;;;;;;;;;;;;;;5063275;28;20188;-87
2022/07/04 00:30:46;;;;;;;;;;;;;;;;;;5087998;28;19928;-87
2022/07/04 00:33:12;;;;;;;;;;;;;;;;;;5092463;28;20440;-87
2022/07/04 00:35:38;;;;;;;;;;;;;;;;;;5068941;28;20007;-87
2022/07/04 00:38:04;;;;;;;;;;;;;;;;;;5078934;28;19976;-87
2022/07/04 00:40:30;;;;;;;;;;;;;;;;;;5072030;28;19924;-86
2022/07/04 00:42:56;;;;;;;;;;;;;;;;;;5085324;28;19928;-87
2022/07/04 00:45:22;;;;;;;;;;;;;;;;;;5092026;28;19928;-87
2022/07/04 00:47:48;;;;;;;;;;;;;;;;;;5080069;28;19977;-88
2022/07/04 00:50:14;;;;;;;;;;;;;;;;;;5070783;28;19977;-87
2022/07/04 00:52:40;;;;;;;;;;;;;;;;;;5088183;28;19924;-88
2022/07/04 00:55:06;;;;;;;;;;;;;;;;;;5074693;28;19931;-86
2022/07/04 00:57:32;;;;;;;;;;;;;;;;;;5090881;28;19928;-86
2022/07/04 00:59:58;;;;;;;;;;;;;;;;;;5095898;28;19966;-87
2022/07/04 01:02:23;;;;;;;;;;;;;;;;;;5063512;28;19928;-87
2022/07/04 01:04:49;;;;;;;;;;;;;;;;;;5088640;28;19940;-87
2022/07/04 01:07:15;;;;;;;;;;;;;;;;;;5088202;28;20007;-87
2022/07/04 01:09:41;;;;;;;;;;;;;;;;;;5075635;28;20368;-88
2022/07/04 01:12:07;;;;;;;;;;;;;;;;;;5066891;28;19924;-87
2022/07/04 01:14:33;;;;;;;;;;;;;;;;;;5078850;28;19930;-87
2022/07/04 01:16:59;;;;;;;;;;;;;;;;;;5082452;28;19925;-87
2022/07/04 01:19:25;;;;;;;;;;;;;;;;;;5088067;28;19931;-87
2022/07/04 01:21:51;;;;;;;;;;;;;;;;;;5081148;28;20023;-88
2022/07/04 01:24:17;;;;;;;;;;;;;;;;;;5088000;28;20279;-88
2022/07/04 01:26:43;;;;;;;;;;;;;;;;;;5104604;28;20257;-88
2022/07/04 01:29:09;;;;;;;;;;;;;;;;;;5087625;28;20062;-88
2022/07/04 01:31:35;;;;;;;;;;;;;;;;;;5088496;28;19924;-87
2022/07/04 01:34:01;;;;;;;;;;;;;;;;;;5085786;28;19977;-87
2022/07/04 01:36:27;;;;;;;;;;;;;;;;;;5071634;28;20033;-86
2022/07/04 01:38:54;;;;;;;;;;;;;;;;;;5089979;28;19947;-87
2022/07/04 01:41:20;;;;;;;;;;;;;;;;;;5106368;28;20032;-88
2022/07/04 01:43:46;;;;;;;;;;;;;;;;;;5078967;28;20376;-88
2022/07/04 01:46:12;;;;;;;;;;;;;;;;;;5091948;28;20323;-88
2022/07/04 01:48:38;;;;;;;;;;;;;;;;;;5106122;28;19968;-88
2022/07/04 01:51:04;;;;;;;;;;;;;;;;;;5076641;28;19931;-87
2022/07/04 01:53:29;;;;;;;;;;;;;;;;;;5091993;28;19964;-87
2022/07/04 01:55:55;;;;;;;;;;;;;;;;;;5092285;28;20386;-88
2022/07/04 01:58:21;;;;;;;;;;;;;;;;;;5080086;28;20319;-87
2022/07/04 02:03:32;;;;;;;;;;;;;;;;;;5074905;28;19928;-86
2022/07/04 02:05:58;;;;;;;;;;;;;;;;;;5091597;28;20007;-86
2022/07/04 02:09:14;;;;;;;;;;;;;;;;;;5091518;28;20439;-86
2022/07/04 02:11:10;;;;;;;;;;;;;;;;;;5107608;27;20398;-88
2022/07/04 02:13:36;;;;;;;;;;;;;;;;;;5091644;28;19986;-87
2022/07/04 02:16:02;;;;;;;;;;;;;;;;;;5091883;28;19929;-87
2022/07/04 02:18:28;;;;;;;;;;;;;;;;;;5058481;28;20434;-86
2022/07/04 02:20:54;;;;;;;;;;;;;;;;;;5058137;28;19924;-87
2022/07/04 02:23:20;;;;;;;;;;;;;;;;;;5057536;28;19962;-86
2022/07/04 02:25:46;;;;;;;;;;;;;;;;;;5105747;28;19971;-88
2022/07/04 02:28:12;;;;;;;;;;;;;;;;;;5059936;28;19936;-87
2022/07/04 02:30:38;;;;;;;;;;;;;;;;;;5103485;28;20019;-87
2022/07/04 02:33:04;;;;;;;;;;;;;;;;;;5062354;28;19947;-87
2022/07/04 02:35:30;;;;;;;;;;;;;;;;;;5107931;28;19924;-86
2022/07/04 02:37:56;;;;;;;;;;;;;;;;;;5108362;28;19933;-87
2022/07/04 02:40:22;;;;;;;;;;;;;;;;;;5093324;28;19928;-87
2022/07/04 02:42:48;;;;;;;;;;;;;;;;;;5073834;28;20283;-88
2022/07/04 02:45:17;;;;;;;;;;;;;;;;;;5101282;28;19959;-89
2022/07/04 02:47:43;;;;;;;;;;;;;;;;;;5071535;28;20358;-88
2022/07/04 02:50:09;;;;;;;;;;;;;;;;;;5070709;28;20015;-88
2022/07/04 02:52:35;;;;;;;;;;;;;;;;;;5067191;28;20367;-87
2022/07/04 02:55:01;;;;;;;;;;;;;;;;;;5100530;28;19978;-86
2022/07/04 02:57:27;;;;;;;;;;;;;;;;;;5062685;28;20356;-87
2022/07/04 02:59:53;;;;;;;;;;;;;;;;;;5072685;28;19952;-88
2022/07/04 03:02:19;;;;;;;;;;;;;;;;;;5069702;28;19925;-88
2022/07/04 03:04:45;;;;;;;;;;;;;;;;;;5074347;28;20016;-88
2022/07/04 03:07:11;;;;;;;;;;;;;;;;;;5089956;28;19970;-88
2022/07/04 03:09:37;;;;;;;;;;;;;;;;;;5073406;28;19958;-88
2022/07/04 03:12:03;;;;;;;;;;;;;;;;;;5107575;28;20015;-87
2022/07/04 03:14:29;;;;;;;;;;;;;;;;;;5091917;28;19928;-87
2022/07/04 03:16:55;;;;;;;;;;;;;;;;;;5090520;28;19925;-87
2022/07/04 03:19:21;;;;;;;;;;;;;;;;;;5089956;28;20375;-88
2022/07/04 03:21:47;;;;;;;;;;;;;;;;;;5107672;28;20279;-88
2022/07/04 03:24:13;;;;;;;;;;;;;;;;;;5072890;28;20317;-89
2022/07/04 03:26:38;;;;;;;;;;;;;;;;;;5077621;28;20331;-88
2022/07/04 03:29:04;;;;;;;;;;;;;;;;;;5072830;28;19975;-87
2022/07/04 03:31:30;;;;;;;;;;;;;;;;;;5108906;28;19931;-87
2022/07/04 03:33:56;;;;;;;;;;;;;;;;;;5075876;28;19925;-88
2022/07/04 03:36:22;;;;;;;;;;;;;;;;;;5090039;28;20383;-88
2022/07/04 03:38:48;;;;;;;;;;;;;;;;;;5090344;28;19924;-89
2022/07/04 03:41:14;;;;;;;;;;;;;;;;;;5083712;28;19924;-90
2022/07/04 03:43:40;;;;;;;;;;;;;;;;;;5089685;28;19925;-89
2022/07/04 03:46:06;;;;;;;;;;;;;;;;;;5076421;28;20375;-90
2022/07/04 03:48:32;;;;;;;;;;;;;;;;;;5058676;28;19935;-89
2022/07/04 03:50:58;;;;;;;;;;;;;;;;;;5089613;28;19950;-90
2022/07/04 03:53:24;;;;;;;;;;;;;;;;;;5089468;28;19924;-89
2022/07/04 03:55:50;;;;;;;;;;;;;;;;;;5089947;28;19928;-90
2022/07/04 03:58:16;;;;;;;;;;;;;;;;;;5089140;28;19928;-89
2022/07/04 04:00:42;;;;;;;;;;;;;;;;;;5072499;28;20074;-89
2022/07/04 04:05:26;;;;;;;;;;;;;;;;;;5078325;28;19931;-89
2022/07/04 04:05:53;;;;;;;;;;;;;;;;;;5072302;28;20265;-89
2022/07/04 04:08:19;;;;;;;;;;;;;;;;;;5089097;28;19932;-90
2022/07/04 04:10:45;;;;;;;;;;;;;;;;;;5075789;28;19931;-90
2022/07/04 04:13:11;;;;;;;;;;;;;;;;;;5058756;28;20398;-91
2022/07/04 04:15:37;;;;;;;;;;;;;;;;;;5081630;28;20364;-89
2022/07/04 04:18:03;;;;;;;;;;;;;;;;;;5075974;28;20291;-87
2022/07/04 04:20:29;;;;;;;;;;;;;;;;;;5089398;28;20336;-86
2022/07/04 04:22:55;;;;;;;;;;;;;;;;;;5072468;28;20275;-87
2022/07/04 04:25:21;;;;;;;;;;;;;;;;;;5101312;28;20260;-87
2022/07/04 04:27:47;;;;;;;;;;;;;;;;;;5072997;28;20283;-87
2022/07/04 04:30:13;;;;;;;;;;;;;;;;;;5089084;28;20364;-87
2022/07/04 04:32:39;;;;;;;;;;;;;;;;;;5062883;28;20469;-87
2022/07/04 04:35:05;;;;;;;;;;;;;;;;;;5074078;28;20291;-87
2022/07/04 04:37:31;;;;;;;;;;;;;;;;;;5088569;28;19924;-89
2022/07/04 04:39:56;;;;;;;;;;;;;;;;;;5066453;28;19924;-89
2022/07/04 04:42:22;;;;;;;;;;;;;;;;;;5088698;28;20296;-90
2022/07/04 04:44:48;;;;;;;;;;;;;;;;;;5088608;28;19986;-87
2022/07/04 04:47:14;;;;;;;;;;;;;;;;;;5088769;28;19925;-88
2022/07/04 04:49:40;;;;;;;;;;;;;;;;;;5065094;28;19925;-87
2022/07/04 04:52:06;;;;;;;;;;;;;;;;;;5071017;28;19928;-87
2022/07/04 04:54:32;;;;;;;;;;;;;;;;;;5061025;28;20394;-87
2022/07/04 04:56:58;;;;;;;;;;;;;;;;;;5071887;28;19932;-87
2022/07/04 04:59:24;;;;;;;;;;;;;;;;;;5071764;28;19924;-87
2022/07/04 05:01:50;;;;;;;;;;;;;;;;;;5088677;28;19931;-87
2022/07/04 05:04:16;;;;;;;;;;;;;;;;;;5089061;28;19928;-87
2022/07/04 05:06:42;;;;;;;;;;;;;;;;;;5107228;28;20455;-87
2022/07/04 05:09:08;;;;;;;;;;;;;;;;;;5066005;28;19975;-87
2022/07/04 05:11:34;;;;;;;;;;;;;;;;;;5088386;28;19931;-87
2022/07/04 05:14:01;;;;;;;;;;;;;;;;;;5071047;28;19928;-87
2022/07/04 05:16:27;;;;;;;;;;;;;;;;;;5096237;28;19924;-87
2022/07/04 05:18:53;;;;;;;;;;;;;;;;;;5077691;28;20361;-88
2022/07/04 05:21:19;;;;;;;;;;;;;;;;;;5088476;28;20279;-87
2022/07/04 05:23:45;;;;;;;;;;;;;;;;;;5088005;28;20900;-88
2022/07/04 05:26:11;;;;;;;;;;;;;;;;;;5081534;28;19946;-87
2022/07/04 05:28:37;;;;;;;;;;;;;;;;;;5064420;28;19934;-87
2022/07/04 05:31:03;;;;;;;;;;;;;;;;;;5074695;28;19942;-88
2022/07/04 05:33:29;;;;;;;;;;;;;;;;;;5070544;28;20007;-87
2022/07/04 05:35:54;;;;;;;;;;;;;;;;;;5085596;28;19924;-88
2022/07/04 05:38:20;;;;;;;;;;;;;;;;;;5070907;28;19939;-87
2022/07/04 05:40:46;;;;;;;;;;;;;;;;;;5100157;28;19932;-88
2022/07/04 05:43:12;;;;;;;;;;;;;;;;;;5082122;28;19928;-88
2022/07/04 05:45:38;;;;;;;;;;;;;;;;;;5088081;28;19924;-88
2022/07/04 05:48:04;;;;;;;;;;;;;;;;;;5084052;28;20363;-89
2022/07/04 05:50:30;;;;;;;;;;;;;;;;;;5069996;28;19978;-87
2022/07/04 05:52:56;;;;;;;;;;;;;;;;;;5101758;28;19931;-88
2022/07/04 05:55:22;;;;;;;;;;;;;;;;;;5071621;28;19939;-88
2022/07/04 05:57:48;;;;;;;;;;;;;;;;;;5071613;28;19924;-88
2022/07/04 06:00:14;;;;;;;;;;;;;;;;;;5081641;28;19924;-88
2022/07/04 06:02:41;;;;;;;;;;;;;;;;;;5066351;28;20015;-88
2022/07/04 06:05:07;;;;;;;;;;;;;;;;;;5084436;28;20272;-88
2022/07/04 06:07:33;;;;;;;;;;;;;;;;;;5070339;28;19924;-87
2022/07/04 06:09:59;;;;;;;;;;;;;;;;;;5076407;28;19947;-87
2022/07/04 06:12:25;;;;;;;;;;;;;;;;;;5057876;28;20369;-87
2022/07/04 06:14:51;;;;;;;;;;;;;;;;;;5087962;28;19948;-87
2022/07/04 06:17:17;;;;;;;;;;;;;;;;;;5088082;28;19963;-88
2022/07/04 06:19:43;;;;;;;;;;;;;;;;;;5087373;28;19929;-87
2022/07/04 06:22:09;;;;;;;;;;;;;;;;;;5087839;28;19930;-88
2022/07/04 06:24:35;;;;;;;;;;;;;;;;;;5085846;28;19924;-87
2022/07/04 06:27:01;;;;;;;;;;;;;;;;;;5074693;28;20275;-87
2022/07/04 06:29:27;;;;;;;;;;;;;;;;;;5090349;28;19925;-87
2022/07/04 06:31:53;;;;;;;;;;;;;;;;;;5093837;28;19927;-87
2022/07/04 06:37:04;;;;;;;;;;;;;;;;;;5074120;28;19925;-87
2022/07/04 06:39:30;;;;;;;;;;;;;;;;;;5090885;28;20429;-86
2022/07/04 06:41:56;;;;;;;;;;;;;;;;;;5090821;28;19977;-88
2022/07/04 06:44:22;;;;;;;;;;;;;;;;;;5074452;28;19924;-87
2022/07/04 06:46:48;;;;;;;;;;;;;;;;;;5091075;28;19968;-88
2022/07/04 06:49:14;;;;;;;;;;;;;;;;;;5111684;28;19971;-88
2022/07/04 06:51:40;;;;;;;;;;;;;;;;;;5096624;28;20375;-87
2022/07/04 06:54:06;;;;;;;;;;;;;;;;;;5078326;28;19931;-87
2022/07/04 06:56:32;;;;;;;;;;;;;;;;;;5077214;28;19928;-86
2022/07/04 06:58:59;;;;;;;;;;;;;;;;;;5093918;28;19924;-87
2022/07/04 07:01:25;;;;;;;;;;;;;;;;;;5077636;28;19924;-87
2022/07/04 07:03:51;;;;;;;;;;;;;;;;;;5108937;28;20054;-88
2022/07/04 07:06:17;;;;;;;;;;;;;;;;;;5060884;28;19931;-87
2022/07/04 07:08:42;;;;;;;;;;;;;;;;;;5100090;28;19928;-87
2022/07/04 07:11:18;;;;;;;;;;;;;;;;;;5092271;28;19924;-87
2022/07/04 07:13:44;;;;;;;;;;;;;;;;;;5076766;28;20010;-88
2022/07/04 07:16:10;;;;;;;;;;;;;;;;;;5110793;27;20312;-87
2022/07/04 07:18:36;;;;;;;;;;;;;;;;;;5076966;28;20270;-86
2022/07/04 07:21:02;;;;;;;;;;;;;;;;;;5060252;28;20351;-87
2022/07/04 07:23:28;;;;;;;;;;;;;;;;;;5077052;28;19928;-86
2022/07/04 07:25:54;;;;;;;;;;;;;;;;;;5065540;28;20331;-87
2022/07/04 07:28:20;;;;;;;;;;;;;;;;;;5110730;27;20398;-87
2022/07/04 07:30:46;;;;;;;;;;;;;;;;;;5059812;28;20003;-88
2022/07/04 07:33:12;;;;;;;;;;;;;;;;;;5076926;28;19924;-87
2022/07/04 07:35:38;;;;;;;;;;;;;;;;;;5059674;28;19969;-88
2022/07/04 07:38:06;;;;;;;;;;;;;;;;;;5076117;28;19931;-87
2022/07/04 07:40:31;;;;;;;;;;;;;;;;;;5068608;28;19928;-87
2022/07/04 07:42:57;;;;;;;;;;;;;;;;;;5085515;28;20419;-87
2022/07/04 07:45:23;;;;;;;;;;;;;;;;;;5065912;28;20424;-88
2022/07/04 07:47:49;;;;;;;;;;;;;;;;;;5079010;28;20420;-88
2022/07/04 07:50:17;;;;;;;;;;;;;;;;;;5093045;28;21519;-88
2022/07/04 07:52:43;;;;;;;;;;;;;;;;;;5059284;28;20015;-88
2022/07/04 07:55:09;;;;;;;;;;;;;;;;;;5064069;28;19924;-87
2022/07/04 07:57:35;;;;;;;;;;;;;;;;;;5089696;28;19924;-87
2022/07/04 08:00:01;;;;;;;;;;;;;;;;;;5076362;28;20015;-87
2022/07/04 08:05:12;;;;;;;;;;;;;;;;;;5121918;27;19924;-87
2022/07/04 08:07:38;;;;;;;;;;;;;;;;;;5096703;28;19946;-87
2022/07/04 08:10:04;;;;;;;;;;;;;;;;;;5075243;28;19928;-87
2022/07/04 08:12:30;;;;;;;;;;;;;;;;;;5082260;28;19928;-87
2022/07/04 08:14:56;;;;;;;;;;;;;;;;;;5088783;28;19928;-88
2022/07/04 08:17:22;;;;;;;;;;;;;;;;;;5077022;28;19978;-88
2022/07/04 08:19:48;;;;;;;;;;;;;;;;;;5094531;28;19923;-88
2022/07/04 08:22:14;;;;;;;;;;;;;;;;;;5074583;28;19931;-88
2022/07/04 08:24:40;;;;;;;;;;;;;;;;;;5092248;28;19924;-88
2022/07/04 08:27:05;;;;;;;;;;;;;;;;;;5091497;28;19924;-88
2022/07/04 08:29:32;;;;;;;;;;;;;;;;;;5085346;28;19924;-87
2022/07/04 08:31:58;;;;;;;;;;;;;;;;;;5075181;28;20430;-87
2022/07/04 08:34:24;;;;;;;;;;;;;;;;;;5074574;28;19928;-86
2022/07/04 08:36:50;;;;;;;;;;;;;;;;;;5074985;28;19932;-87
2022/07/04 08:39:16;;;;;;;;;;;;;;;;;;5063474;28;19928;-88
2022/07/04 08:41:42;;;;;;;;;;;;;;;;;;5092036;28;19952;-88
2022/07/04 08:44:10;;;;;;;;;;;;;;;;;;5060529;28;20359;-88
2022/07/04 08:46:36;;;;;;;;;;;;;;;;;;5104599;28;19974;-88
2022/07/04 08:49:03;;;;;;;;;;;;;;;;;;5070894;28;20019;-88
2022/07/04 08:51:29;;;;;;;;;;;;;;;;;;5093080;28;19924;-87
2022/07/04 08:53:55;;;;;;;;;;;;;;;;;;5077110;28;19993;-88
2022/07/04 08:59:05;;;;;;;;;;;;;;;;;;5109028;27;20037;-87
2022/07/04 09:01:31;;;;;;;;;;;;;;;;;;5060941;28;20382;-87
2022/07/04 09:03:57;;;;;;;;;;;;;;;;;;5091203;28;20351;-87
2022/07/04 09:06:23;;;;;;;;;;;;;;;;;;5058189;28;20397;-86
2022/07/04 09:08:49;;;;;;;;;;;;;;;;;;5074063;28;19924;-88
2022/07/04 09:11:15;;;;;;;;;;;;;;;;;;5075517;28;20316;-87
2022/07/04 09:13:41;;;;;;;;;;;;;;;;;;5091851;28;20015;-88
2022/07/04 09:16:07;;;;;;;;;;;;;;;;;;5058336;28;20278;-87
2022/07/04 09:18:33;;;;;;;;;;;;;;;;;;5097069;28;19950;-85
2022/07/04 09:20:59;;;;;;;;;;;;;;;;;;5086919;28;19924;-86
2022/07/04 09:23:25;;;;;;;;;;;;;;;;;;5074863;28;20015;-85
2022/07/04 09:25:51;;;;;;;;;;;;;;;;;;5064387;28;20007;-87
2022/07/04 09:28:17;;;;;;;;;;;;;;;;;;5101498;28;19951;-87
2022/07/04 09:30:43;;;;;;;;;;;;;;;;;;5096213;28;19935;-88
2022/07/04 09:33:09;;;;;;;;;;;;;;;;;;5074263;28;19944;-86
2022/07/04 09:35:35;;;;;;;;;;;;;;;;;;5089291;28;19975;-85
2022/07/04 09:38:01;;;;;;;;;;;;;;;;;;5090610;28;20367;-86
2022/07/04 09:40:27;;;;;;;;;;;;;;;;;;5103773;28;20379;-86
2022/07/04 09:42:53;;;;;;;;;;;;;;;;;;5089168;28;19935;-85
2022/07/04 09:45:21;;;;;;;;;;;;;;;;;;5108552;28;19928;-86
2022/07/04 09:47:47;;;;;;;;;;;;;;;;;;5082929;28;19924;-87
2022/07/04 09:50:13;;;;;;;;;;;;;;;;;;5105298;28;19928;-86
2022/07/04 09:52:39;;;;;;;;;;;;;;;;;;5063874;28;20368;-86
2022/07/04 09:55:07;;;;;;;;;;;;;;;;;;5090794;28;20303;-84
2022/07/04 09:57:33;;;;;;;;;;;;;;;;;;5106903;28;19923;-84
2022/07/04 09:59:59;;;;;;;;;;;;;;;;;;5101118;28;19978;-85
2022/07/04 10:02:25;;;;;;;;;;;;;;;;;;5068168;28;20010;-85
2022/07/04 10:04:51;;;;;;;;;;;;;;;;;;5079715;28;19931;-85
2022/07/04 10:07:17;;;;;;;;;;;;;;;;;;5077944;28;19935;-85
2022/07/04 10:09:43;;;;;;;;;;;;;;;;;;5095379;28;19931;-86
2022/07/04 10:12:10;;;;;;;;;;;;;;;;;;5077597;28;19928;-85
2022/07/04 10:14:36;;;;;;;;;;;;;;;;;;5078525;28;19924;-85
2022/07/04 10:17:02;;;;;;;;;;;;;;;;;;5077655;28;20014;-84
2022/07/04 10:19:28;;;;;;;;;;;;;;;;;;5110989;27;19930;-85
2022/07/04 10:21:54;;;;;;;;;;;;;;;;;;5078259;28;19928;-85
2022/07/04 10:24:20;;;;;;;;;;;;;;;;;;5061239;28;20370;-84
2022/07/04 10:26:45;;;;;;;;;;;;;;;;;;5065663;28;20366;-85
2022/07/04 10:29:11;;;;;;;;;;;;;;;;;;5076930;28;19958;-86
2022/07/04 10:31:37;;;;;;;;;;;;;;;;;;5079393;28;19928;-85
2022/07/04 10:34:03;;;;;;;;;;;;;;;;;;5094653;28;20422;-84
2022/07/04 10:36:30;;;;;;;;;;;;;;;;;;5061272;28;20355;-83
2022/07/04 10:38:58;;;;;;;;;;;;;;;;;;5093999;28;19924;-85
2022/07/04 10:41:24;;;;;;;;;;;;;;;;;;5085631;28;19938;-84
2022/07/04 10:43:50;;;;;;;;;;;;;;;;;;5100067;28;19924;-86
2022/07/04 10:46:16;;;;;;;;;;;;;;;;;;5076755;28;19928;-87
2022/07/04 10:48:42;;;;;;;;;;;;;;;;;;5083366;28;19931;-85
2022/07/04 10:51:08;;;;;;;;;;;;;;;;;;5090857;28;19971;-85
2022/07/04 10:53:34;;;;;;;;;;;;;;;;;;5068857;28;19924;-85
2022/07/04 10:56:00;;;;;;;;;;;;;;;;;;5093585;28;20413;-85
2022/07/04 10:58:26;;;;;;;;;;;;;;;;;;5080849;28;19946;-85
2022/07/04 11:00:52;;;;;;;;;;;;;;;;;;5092252;28;19946;-86
2022/07/04 11:03:19;;;;;;;;;;;;;;;;;;5094106;28;19974;-85
2022/07/04 11:05:45;;;;;;;;;;;;;;;;;;5077214;28;19928;-85
2022/07/04 11:08:11;;;;;;;;;;;;;;;;;;5067431;28;19928;-85
2022/07/04 11:10:38;;;;;;;;;;;;;;;;;;5092823;28;19931;-85
2022/07/04 11:13:06;;;;;;;;;;;;;;;;;;5063159;28;19925;-85
2022/07/04 11:15:32;;;;;;;;;;;;;;;;;;5076838;28;20002;-84
2022/07/04 11:17:58;;;;;;;;;;;;;;;;;;5076763;28;19982;-84
2022/07/04 11:20:24;;;;;;;;;;;;;;;;;;5077654;28;19924;-84
2022/07/04 11:22:49;;;;;;;;;;;;;;;;;;5093229;28;19928;-85
2022/07/04 11:25:15;;;;;;;;;;;;;;;;;;5067504;28;19928;-86
2022/07/04 11:27:41;;;;;;;;;;;;;;;;;;5076768;28;20420;-85
2022/07/04 11:30:08;;;;;;;;;;;;;;;;;;5078630;28;20324;-86
2022/07/04 11:32:34;;;;;;;;;;;;;;;;;;5096263;28;19923;-84
2022/07/04 11:35:00;;;;;;;;;;;;;;;;;;5104604;28;20019;-85
2022/07/04 11:37:26;;;;;;;;;;;;;;;;;;5076310;28;19925;-85
2022/07/04 11:39:52;;;;;;;;;;;;;;;;;;5073592;28;19949;-86
2022/07/04 11:45:02;;;;;;;;;;;;;;;;;;5109552;27;20428;-86
2022/07/04 11:47:28;;;;;;;;;;;;;;;;;;5076710;28;19924;-86
2022/07/04 11:49:54;;;;;;;;;;;;;;;;;;5093334;28;19924;-86
2022/07/04 11:52:20;;;;;;;;;;;;;;;;;;5062890;28;19924;-85
2022/07/04 11:54:46;;;;;;;;;;;;;;;;;;5076255;28;19931;-87
2022/07/04 11:57:12;;;;;;;;;;;;;;;;;;5087559;28;20395;-85
2022/07/04 11:59:38;;;;;;;;;;;;;;;;;;5075726;28;19947;-85
2022/07/04 12:02:04;;;;;;;;;;;;;;;;;;5083091;28;19924;-86
2022/07/04 12:04:30;;;;;;;;;;;;;;;;;;5095162;28;19993;-86
2022/07/04 12:06:56;;;;;;;;;;;;;;;;;;5111479;28;19977;-86
2022/07/04 12:09:22;;;;;;;;;;;;;;;;;;5105258;28;19931;-85
2022/07/04 12:11:48;;;;;;;;;;;;;;;;;;5075784;28;19924;-87
2022/07/04 12:14:14;;;;;;;;;;;;;;;;;;5092266;28;19924;-87
2022/07/04 12:16:40;;;;;;;;;;;;;;;;;;5075941;28;19976;-86
2022/07/04 12:19:06;;;;;;;;;;;;;;;;;;5077696;28;20013;-85
2022/07/04 12:21:32;;;;;;;;;;;;;;;;;;5112193;28;19924;-86
2022/07/04 12:23:58;;;;;;;;;;;;;;;;;;5103987;28;19924;-86
2022/07/04 12:26:24;;;;;;;;;;;;;;;;;;5061239;28;19924;-85
2022/07/04 12:28:49;;;;;;;;;;;;;;;;;;5104601;28;20324;-86
2022/07/04 12:31:16;;;;;;;;;;;;;;;;;;5084314;28;20517;-87
2022/07/04 12:33:42;;;;;;;;;;;;;;;;;;5120723;27;19935;-86
2022/07/04 12:36:08;;;;;;;;;;;;;;;;;;5101860;28;19924;-86
2022/07/04 12:38:34;;;;;;;;;;;;;;;;;;5069815;28;19924;-85
2022/07/04 12:41:00;;;;;;;;;;;;;;;;;;5091665;28;20069;-86
2022/07/04 12:43:26;;;;;;;;;;;;;;;;;;5079334;28;19925;-86
2022/07/04 12:45:54;;;;;;;;;;;;;;;;;;5092132;28;20033;-87
2022/07/04 12:48:20;;;;;;;;;;;;;;;;;;5063143;28;20007;-87
2022/07/04 12:50:46;;;;;;;;;;;;;;;;;;5079313;28;19966;-86
2022/07/04 12:53:11;;;;;;;;;;;;;;;;;;5057841;28;20430;-87
2022/07/04 12:55:38;;;;;;;;;;;;;;;;;;5087048;28;19967;-86
2022/07/04 12:58:04;;;;;;;;;;;;;;;;;;5091776;28;19961;-86
2022/07/04 13:00:30;;;;;;;;;;;;;;;;;;5079946;28;20460;-86
2022/07/04 13:02:56;;;;;;;;;;;;;;;;;;5074937;28;20387;-86
2022/07/04 13:05:22;;;;;;;;;;;;;;;;;;5093174;28;20043;-85
2022/07/04 13:07:48;;;;;;;;;;;;;;;;;;5108163;28;20025;-86
2022/07/04 13:10:14;;;;;;;;;;;;;;;;;;5074349;28;19924;-87
2022/07/04 13:12:40;;;;;;;;;;;;;;;;;;5075115;28;19968;-88
2022/07/04 13:15:06;;;;;;;;;;;;;;;;;;5075209;28;20360;-87
2022/07/04 13:17:32;;;;;;;;;;;;;;;;;;5074684;28;19928;-86
2022/07/04 13:19:58;;;;;;;;;;;;;;;;;;5059782;28;19924;-86
2022/07/04 13:22:24;;;;;;;;;;;;;;;;;;5091914;28;19947;-85
2022/07/04 13:24:50;;;;;;;;;;;;;;;;;;5091272;28;19928;-87
2022/07/04 13:27:16;;;;;;;;;;;;;;;;;;5091655;28;19924;-87
2022/07/04 13:29:42;;;;;;;;;;;;;;;;;;5074385;28;20267;-86
2022/07/04 13:32:08;;;;;;;;;;;;;;;;;;5073999;28;19946;-86
2022/07/04 13:34:34;;;;;;;;;;;;;;;;;;5061366;28;19932;-85
2022/07/04 13:37:00;;;;;;;;;;;;;;;;;;5112627;28;19924;-86
2022/07/04 13:39:26;;;;;;;;;;;;;;;;;;5095667;28;19924;-85
2022/07/04 13:41:52;;;;;;;;;;;;;;;;;;5093360;28;19930;-86
2022/07/04 13:44:18;;;;;;;;;;;;;;;;;;5095246;28;20027;-86
2022/07/04 13:46:44;;;;;;;;;;;;;;;;;;5067104;28;19973;-87
2022/07/04 13:49:10;;;;;;;;;;;;;;;;;;5101158;28;19924;-87
2022/07/04 13:51:36;;;;;;;;;;;;;;;;;;5081790;28;19928;-85
2022/07/04 13:54:02;;;;;;;;;;;;;;;;;;5062953;28;20031;-88
2022/07/04 13:56:28;;;;;;;;;;;;;;;;;;5086024;28;19931;-85
2022/07/04 13:58:54;;;;;;;;;;;;;;;;;;5091987;28;19924;-85
2022/07/04 14:01:20;;;;;;;;;;;;;;;;;;5090444;28;19932;-86
2022/07/04 14:03:46;;;;;;;;;;;;;;;;;;5075133;28;19932;-87
2022/07/04 14:06:12;;;;;;;;;;;;;;;;;;5076581;28;19932;-85
2022/07/04 14:08:38;;;;;;;;;;;;;;;;;;5062202;28;19930;-85
2022/07/04 14:11:04;;;;;;;;;;;;;;;;;;5074203;28;20006;-87
2022/07/04 14:13:30;;;;;;;;;;;;;;;;;;5074971;28;19925;-85
2022/07/04 14:15:56;;;;;;;;;;;;;;;;;;5074462;28;19924;-86
2022/07/04 14:18:22;;;;;;;;;;;;;;;;;;5078906;28;20007;-86
2022/07/04 14:20:50;;;;;;;;;;;;;;;;;;5065635;28;20314;-86
2022/07/04 14:23:39;;;;;;;;;;;;;;;;;;5093772;28;20434;-86
2022/07/04 14:26:01;;;;;;;;;;;;;;;;;;5079993;28;19924;-86
2022/07/04 14:28:27;;;;;;;;;;;;;;;;;;5095598;28;19924;-84
2022/07/04 14:30:53;;;;;;;;;;;;;;;;;;5101944;28;19925;-85
2022/07/04 14:33:19;;;;;;;;;;;;;;;;;;5107790;28;19935;-85
2022/07/04 14:35:45;;;;;;;;;;;;;;;;;;5074627;28;19925;-86
2022/07/04 14:38:11;;;;;;;;;;;;;;;;;;5085076;28;19977;-86
2022/07/04 14:40:38;;;;;;;;;;;;;;;;;;5080828;28;19974;-84
2022/07/04 14:43:04;;;;;;;;;;;;;;;;;;5074476;28;19947;-85
2022/07/04 14:45:30;;;;;;;;;;;;;;;;;;5096077;28;20356;-87
2022/07/04 14:47:56;;;;;;;;;;;;;;;;;;5073753;28;20291;-87
2022/07/04 14:50:22;;;;;;;;;;;;;;;;;;5077700;28;20341;-86
2022/07/04 14:52:48;;;;;;;;;;;;;;;;;;5080881;28;20275;-85
2022/07/04 14:55:14;;;;;;;;;;;;;;;;;;5061140;28;19924;-86
2022/07/04 14:57:40;;;;;;;;;;;;;;;;;;5092056;28;19951;-85
2022/07/04 15:00:06;;;;;;;;;;;;;;;;;;5065206;28;19931;-85
2022/07/04 15:02:32;;;;;;;;;;;;;;;;;;5073542;28;20019;-85
2022/07/04 15:04:58;;;;;;;;;;;;;;;;;;5076129;28;19924;-85
2022/07/04 15:07:24;;;;;;;;;;;;;;;;;;5073239;28;19931;-85
2022/07/04 15:09:50;;;;;;;;;;;;;;;;;;5062641;28;20291;-85
2022/07/04 15:12:16;;;;;;;;;;;;;;;;;;5090734;28;19928;-86
2022/07/04 15:14:42;;;;;;;;;;;;;;;;;;5084509;28;19928;-87
2022/07/04 15:17:08;;;;;;;;;;;;;;;;;;5073649;28;20016;-86
2022/07/04 15:24:10;;;;;;;;;;;;;;;;;;5089907;28;20383;-86
2022/07/04 15:25:04;;;;;;;;;;;;;;;;;;5073533;28;19932;-85
2022/07/04 15:27:30;;;;;;;;;;;;;;;;;;5089507;28;20079;-85
2022/07/04 15:29:56;;;;;;;;;;;;;;;;;;5085065;28;19924;-85
2022/07/04 15:32:22;;;;;;;;;;;;;;;;;;5067348;28;19925;-85
2022/07/04 15:34:48;;;;;;;;;;;;;;;;;;5071660;28;19935;-86
2022/07/04 15:37:14;;;;;;;;;;;;;;;;;;5075673;28;19994;-86
2022/07/04 15:39:40;;;;;;;;;;;;;;;;;;5072267;28;19924;-85
2022/07/04 15:42:06;;;;;;;;;;;;;;;;;;5068358;28;19931;-86
2022/07/04 15:44:32;;;;;;;;;;;;;;;;;;5096227;28;20498;-89
2022/07/04 15:47:10;;;;;;;;;;;;;;;;;;5071307;28;19924;-87
2022/07/04 15:49:36;;;;;;;;;;;;;;;;;;5099563;28;19931;-85
2022/07/04 15:52:02;;;;;;;;;;;;;;;;;;5081797;28;20282;-85
2022/07/04 15:54:28;;;;;;;;;;;;;;;;;;5099754;28;19924;-85
2022/07/04 15:56:54;;;;;;;;;;;;;;;;;;5090134;28;19975;-86
2022/07/04 15:59:20;;;;;;;;;;;;;;;;;;5059404;28;19932;-86
2022/07/04 16:01:46;;;;;;;;;;;;;;;;;;5076339;28;19924;-87
2022/07/04 16:04:15;;;;;;;;;;;;;;;;;;5086496;28;19931;-86
2022/07/04 16:06:41;;;;;;;;;;;;;;;;;;5112223;28;19924;-86
2022/07/04 16:09:07;;;;;;;;;;;;;;;;;;5098326;28;19924;-86
2022/07/04 16:11:33;;;;;;;;;;;;;;;;;;5068475;28;20211;-85
2022/07/04 16:13:59;;;;;;;;;;;;;;;;;;5092771;28;19962;-86
2022/07/04 16:16:25;;;;;;;;;;;;;;;;;;5062889;28;19924;-86
2022/07/04 16:18:51;;;;;;;;;;;;;;;;;;5083439;28;19924;-86
2022/07/04 16:21:17;;;;;;;;;;;;;;;;;;5105058;28;20031;-87
2022/07/04 16:23:43;;;;;;;;;;;;;;;;;;5095330;28;20028;-87
2022/07/04 16:26:09;;;;;;;;;;;;;;;;;;5075867;28;19932;-86
2022/07/04 16:28:34;;;;;;;;;;;;;;;;;;5058880;28;20173;-85
2022/07/04 16:31:00;;;;;;;;;;;;;;;;;;5075397;28;19973;-86
2022/07/04 16:33:26;;;;;;;;;;;;;;;;;;5073077;28;19924;-85
2022/07/04 16:35:52;;;;;;;;;;;;;;;;;;5100115;28;19923;-87
2022/07/04 16:38:18;;;;;;;;;;;;;;;;;;5105999;28;20389;-86
2022/07/04 16:40:44;;;;;;;;;;;;;;;;;;5109290;28;19947;-86
2022/07/04 16:43:10;;;;;;;;;;;;;;;;;;5075532;28;19951;-87
2022/07/04 16:45:36;;;;;;;;;;;;;;;;;;5091300;28;20522;-87
2022/07/04 16:48:05;;;;;;;;;;;;;;;;;;5109903;27;19931;-87
2022/07/04 16:50:31;;;;;;;;;;;;;;;;;;5074075;28;19924;-86
2022/07/04 16:52:57;;;;;;;;;;;;;;;;;;5092094;28;19924;-87
2022/07/04 16:55:23;;;;;;;;;;;;;;;;;;5062681;28;19969;-86